Time,TemperatureF,DewpointF,PressureIn,WindDirection,WindDirectionDegrees,WindSpeedMPH,WindSpeedGustMPH,Humidity,HourlyPrecipIn,Conditions,Clouds,dailyrainin,SolarRadiationWatts/m^2,SoftwareType,DateUTC
2013-01-21 00:22:00,22.0,8.0,-100.00,SW,228,5.0,12.0,55,0.00,,,0.00,1.000000,,2013-01-21 05:22:00,
2013-01-21 00:34:00,22.0,8.0,-100.00,SW,228,5.0,12.0,55,0.00,,,0.00,1.000000,,2013-01-21 05:34:00,
2013-01-21 00:42:00,22.0,8.0,-100.00,SW,228,5.0,12.0,55,0.00,,,0.00,1.000000,,2013-01-21 05:42:00,
2013-01-21 00:52:00,22.0,8.0,-100.00,SW,228,5.0,12.0,55,0.00,,,0.00,1.000000,,2013-01-21 05:52:00,
2013-01-21 01:23:00,21.0,8.0,-100.00,WSW,245,3.0,13.0,57,0.00,,,0.00,1.000000,,2013-01-21 06:23:00,
2013-01-21 01:33:00,21.0,8.0,-100.00,WSW,245,3.0,13.0,57,0.00,,,0.00,1.000000,,2013-01-21 06:33:00,
2013-01-21 01:43:00,21.0,8.0,-100.00,WSW,245,3.0,13.0,57,0.00,,,0.00,1.000000,,2013-01-21 06:43:00,
2013-01-21 01:52:00,21.0,8.0,-100.00,WSW,245,3.0,13.0,57,0.00,,,0.00,1.000000,,2013-01-21 06:52:00,
2013-01-21 02:23:00,19.0,10.0,-100.00,NNW,339,0.0,7.0,67,0.00,,,0.00,1.000000,,2013-01-21 07:23:00,
2013-01-21 02:33:00,19.0,10.0,-100.00,NNW,339,0.0,7.0,67,0.00,,,0.00,1.000000,,2013-01-21 07:33:00,
2013-01-21 02:42:00,19.0,10.0,-100.00,NNW,339,0.0,7.0,67,0.00,,,0.00,1.000000,,2013-01-21 07:42:00,
2013-01-21 02:52:00,19.0,10.0,-100.00,NNW,339,0.0,7.0,67,0.00,,,0.00,1.000000,,2013-01-21 07:52:00,
2013-01-21 03:23:00,17.0,10.0,-100.00,West,270,0.0,3.0,75,0.00,,,0.00,1.000000,,2013-01-21 08:23:00,
2013-01-21 03:33:00,17.0,10.0,-100.00,West,270,0.0,3.0,75,0.00,,,0.00,1.000000,,2013-01-21 08:33:00,
2013-01-21 03:42:00,17.0,10.0,-100.00,West,270,0.0,3.0,75,0.00,,,0.00,1.000000,,2013-01-21 08:42:00,
2013-01-21 03:53:00,17.0,10.0,-100.00,West,270,0.0,3.0,75,0.00,,,0.00,1.000000,,2013-01-21 08:53:00,
2013-01-21 04:23:00,17.0,11.0,-100.00,WNW,295,0.0,3.0,76,0.00,,,0.00,1.000000,,2013-01-21 09:23:00,
2013-01-21 04:33:00,17.0,11.0,-100.00,WNW,295,0.0,3.0,76,0.00,,,0.00,1.000000,,2013-01-21 09:33:00,
2013-01-21 04:42:00,17.0,11.0,-100.00,WNW,295,0.0,3.0,76,0.00,,,0.00,1.000000,,2013-01-21 09:42:00,
2013-01-21 04:53:00,17.0,11.0,-100.00,WNW,295,0.0,3.0,76,0.00,,,0.00,1.000000,,2013-01-21 09:53:00,
2013-01-21 05:22:00,17.0,10.0,-100.00,WSW,254,0.0,0.0,73,0.00,,,0.00,1.000000,,2013-01-21 10:22:00,
2013-01-21 05:33:00,17.0,10.0,-100.00,WSW,254,0.0,0.0,73,0.00,,,0.00,1.000000,,2013-01-21 10:33:00,
2013-01-21 05:43:00,17.0,10.0,-100.00,WSW,254,0.0,0.0,73,0.00,,,0.00,1.000000,,2013-01-21 10:43:00,
2013-01-21 05:53:00,17.0,10.0,-100.00,WSW,254,0.0,0.0,73,0.00,,,0.00,1.000000,,2013-01-21 10:53:00,
2013-01-21 06:23:00,19.0,11.0,-100.00,WSW,243,0.0,0.0,71,0.00,,,0.00,1.000000,,2013-01-21 11:23:00,
2013-01-21 06:33:00,19.0,11.0,-100.00,WSW,243,0.0,0.0,71,0.00,,,0.00,1.000000,,2013-01-21 11:33:00,
2013-01-21 06:43:00,19.0,11.0,-100.00,WSW,243,0.0,0.0,71,0.00,,,0.00,1.000000,,2013-01-21 11:43:00,
2013-01-21 06:53:00,19.0,11.0,-100.00,WSW,243,0.0,0.0,71,0.00,,,0.00,1.000000,,2013-01-21 11:53:00,
2013-01-21 07:22:00,20.0,11.0,-100.00,WSW,251,2.0,2.0,68,0.00,,,0.00,1.000000,,2013-01-21 12:22:00,
2013-01-21 07:33:00,20.0,11.0,-100.00,WSW,251,2.0,2.0,68,0.00,,,0.00,1.000000,,2013-01-21 12:33:00,
2013-01-21 07:42:00,20.0,11.0,-100.00,WSW,251,2.0,2.0,68,0.00,,,0.00,1.000000,,2013-01-21 12:42:00,
2013-01-21 07:52:00,20.0,11.0,-100.00,WSW,251,2.0,2.0,68,0.00,,,0.00,1.000000,,2013-01-21 12:52:00,
2013-01-21 08:23:00,21.0,11.0,-100.00,NW,321,0.0,3.0,64,0.00,,,0.00,5.000000,,2013-01-21 13:23:00,
2013-01-21 08:33:00,21.0,11.0,-100.00,NW,321,0.0,3.0,64,0.00,,,0.00,5.000000,,2013-01-21 13:33:00,
2013-01-21 08:43:00,21.0,11.0,-100.00,NW,321,0.0,3.0,64,0.00,,,0.00,5.000000,,2013-01-21 13:43:00,
2013-01-21 08:53:00,21.0,11.0,-100.00,NW,321,0.0,3.0,64,0.00,,,0.00,5.000000,,2013-01-21 13:53:00,
2013-01-21 09:23:00,22.0,10.0,-100.00,West,259,3.0,7.0,59,0.00,,,0.00,50.000000,,2013-01-21 14:23:00,
2013-01-21 09:33:00,22.0,10.0,-100.00,West,259,3.0,7.0,59,0.00,,,0.00,50.000000,,2013-01-21 14:33:00,
2013-01-21 09:43:00,22.0,10.0,-100.00,West,259,3.0,7.0,59,0.00,,,0.00,50.000000,,2013-01-21 14:43:00,
2013-01-21 09:53:00,22.0,10.0,-100.00,West,259,3.0,7.0,59,0.00,,,0.00,50.000000,,2013-01-21 14:53:00,
2013-01-21 10:23:00,24.0,10.0,-100.00,SW,221,4.0,6.0,55,0.00,,,0.00,103.000000,,2013-01-21 15:23:00,
2013-01-21 10:33:00,24.0,10.0,-100.00,SW,221,4.0,6.0,55,0.00,,,0.00,103.000000,,2013-01-21 15:33:00,
2013-01-21 10:43:00,24.0,10.0,-100.00,SW,221,4.0,6.0,55,0.00,,,0.00,103.000000,,2013-01-21 15:43:00,
2013-01-21 10:53:00,24.0,10.0,-100.00,SW,221,4.0,6.0,55,0.00,,,0.00,103.000000,,2013-01-21 15:53:00,
2013-01-21 11:23:00,26.0,12.0,-100.00,WSW,255,3.0,9.0,56,0.00,,,0.00,215.000000,,2013-01-21 16:23:00,
2013-01-21 11:33:00,26.0,12.0,-100.00,WSW,255,3.0,9.0,56,0.00,,,0.00,215.000000,,2013-01-21 16:33:00,
2013-01-21 11:53:00,26.0,12.0,-100.00,WSW,255,3.0,9.0,56,0.00,,,0.00,215.000000,,2013-01-21 16:53:00,
2013-01-21 12:23:00,26.0,14.0,-100.00,SW,221,3.0,9.0,60,0.00,,,0.00,157.000000,,2013-01-21 17:23:00,
2013-01-21 12:33:00,26.0,14.0,-100.00,SW,221,3.0,9.0,60,0.00,,,0.00,157.000000,,2013-01-21 17:33:00,
2013-01-21 12:43:00,26.0,14.0,-100.00,SW,221,3.0,9.0,60,0.00,,,0.00,157.000000,,2013-01-21 17:43:00,
2013-01-21 12:53:00,26.0,14.0,-100.00,SW,221,3.0,9.0,60,0.00,,,0.00,157.000000,,2013-01-21 17:53:00,
2013-01-21 13:23:00,25.0,17.0,-100.00,West,267,4.0,10.0,71,0.00,,,0.00,163.000000,,2013-01-21 18:23:00,
2013-01-21 13:33:00,25.0,17.0,-100.00,West,267,4.0,10.0,71,0.00,,,0.00,163.000000,,2013-01-21 18:33:00,
2013-01-21 13:43:00,25.0,17.0,-100.00,West,267,4.0,10.0,71,0.00,,,0.00,163.000000,,2013-01-21 18:43:00,
2013-01-21 13:52:00,25.0,17.0,-100.00,West,267,4.0,10.0,71,0.00,,,0.00,163.000000,,2013-01-21 18:52:00,
2013-01-21 14:23:00,25.0,18.0,-100.00,NE,41,4.0,13.0,74,0.00,,,0.00,142.000000,,2013-01-21 19:23:00,
2013-01-21 14:33:00,25.0,18.0,-100.00,NE,41,4.0,13.0,74,0.00,,,0.00,142.000000,,2013-01-21 19:33:00,
2013-01-21 14:43:00,25.0,18.0,-100.00,NE,41,4.0,13.0,74,0.00,,,0.00,142.000000,,2013-01-21 19:43:00,
2013-01-21 14:53:00,25.0,18.0,-100.00,NE,41,4.0,13.0,74,0.00,,,0.00,142.000000,,2013-01-21 19:53:00,
2013-01-21 15:23:00,26.0,18.0,-100.00,East,85,3.0,12.0,72,0.00,,,0.00,130.000000,,2013-01-21 20:23:00,
2013-01-21 15:33:00,26.0,18.0,-100.00,East,85,3.0,12.0,72,0.00,,,0.00,130.000000,,2013-01-21 20:33:00,
2013-01-21 15:43:00,26.0,18.0,-100.00,East,85,3.0,12.0,72,0.00,,,0.00,130.000000,,2013-01-21 20:43:00,
2013-01-21 15:53:00,26.0,18.0,-100.00,East,85,3.0,12.0,72,0.00,,,0.00,130.000000,,2013-01-21 20:53:00,
2013-01-21 16:23:00,26.0,18.0,-100.00,WNW,284,2.0,8.0,70,0.00,,,0.00,52.000000,,2013-01-21 21:23:00,
2013-01-21 16:33:00,26.0,18.0,-100.00,WNW,284,2.0,8.0,70,0.00,,,0.00,52.000000,,2013-01-21 21:33:00,
2013-01-21 16:43:00,26.0,18.0,-100.00,WNW,284,2.0,8.0,70,0.00,,,0.00,52.000000,,2013-01-21 21:43:00,
2013-01-21 16:53:00,26.0,18.0,-100.00,WNW,284,2.0,8.0,70,0.00,,,0.00,52.000000,,2013-01-21 21:53:00,
2013-01-21 17:23:00,24.0,22.0,-100.00,West,280,2.0,6.0,90,0.00,,,0.00,17.000000,,2013-01-21 22:23:00,
2013-01-21 17:33:00,24.0,22.0,-100.00,West,280,2.0,6.0,90,0.00,,,0.00,17.000000,,2013-01-21 22:33:00,
2013-01-21 17:43:00,24.0,22.0,-100.00,West,280,2.0,6.0,90,0.00,,,0.00,17.000000,,2013-01-21 22:43:00,
2013-01-21 17:52:00,24.0,22.0,-100.00,West,280,2.0,6.0,90,0.00,,,0.00,17.000000,,2013-01-21 22:52:00,
2013-01-21 18:23:00,23.0,23.0,-100.00,WSW,258,1.0,5.0,100,0.00,,,0.00,1.000000,,2013-01-21 23:23:00,
2013-01-21 18:33:00,23.0,23.0,-100.00,WSW,258,1.0,5.0,100,0.00,,,0.00,1.000000,,2013-01-21 23:33:00,
2013-01-21 18:42:00,23.0,23.0,-100.00,WSW,258,1.0,5.0,100,0.00,,,0.00,1.000000,,2013-01-21 23:42:00,
2013-01-21 18:53:00,23.0,23.0,-100.00,WSW,258,1.0,5.0,100,0.00,,,0.00,1.000000,,2013-01-21 23:53:00,
2013-01-21 19:23:00,23.0,23.0,-100.00,WSW,242,2.0,11.0,99,0.00,,,0.00,1.000000,,2013-01-22 00:23:00,
2013-01-21 19:33:00,23.0,23.0,-100.00,WSW,242,2.0,11.0,99,0.00,,,0.00,1.000000,,2013-01-22 00:33:00,
2013-01-21 19:43:00,23.0,23.0,-100.00,WSW,242,2.0,11.0,99,0.00,,,0.00,1.000000,,2013-01-22 00:43:00,
2013-01-21 19:53:00,23.0,23.0,-100.00,WSW,242,2.0,11.0,99,0.00,,,0.00,1.000000,,2013-01-22 00:53:00,
2013-01-21 20:23:00,21.0,17.0,-100.00,WNW,284,3.0,14.0,85,0.00,,,0.00,1.000000,,2013-01-22 01:23:00,
2013-01-21 20:33:00,21.0,17.0,-100.00,WNW,284,3.0,14.0,85,0.00,,,0.00,1.000000,,2013-01-22 01:33:00,
2013-01-21 20:43:00,21.0,17.0,-100.00,WNW,284,3.0,14.0,85,0.00,,,0.00,1.000000,,2013-01-22 01:43:00,
2013-01-21 20:52:00,21.0,17.0,-100.00,WNW,284,3.0,14.0,85,0.00,,,0.00,1.000000,,2013-01-22 01:52:00,
2013-01-21 21:23:00,19.0,15.0,-100.00,West,262,3.0,8.0,84,0.00,,,0.00,1.000000,,2013-01-22 02:23:00,
2013-01-21 21:33:00,19.0,15.0,-100.00,West,262,3.0,8.0,84,0.00,,,0.00,1.000000,,2013-01-22 02:33:00,
2013-01-21 21:43:00,19.0,15.0,-100.00,West,262,3.0,8.0,84,0.00,,,0.00,1.000000,,2013-01-22 02:43:00,
2013-01-21 21:53:00,19.0,15.0,-100.00,West,262,3.0,8.0,84,0.00,,,0.00,1.000000,,2013-01-22 02:53:00,
2013-01-21 22:22:00,20.0,14.0,-100.00,WSW,257,3.0,9.0,77,0.00,,,0.00,1.000000,,2013-01-22 03:22:00,
2013-01-21 22:33:00,20.0,14.0,-100.00,WSW,257,3.0,9.0,77,0.00,,,0.00,1.000000,,2013-01-22 03:33:00,
2013-01-21 22:42:00,20.0,14.0,-100.00,WSW,257,3.0,9.0,77,0.00,,,0.00,1.000000,,2013-01-22 03:42:00,
2013-01-21 22:52:00,20.0,14.0,-100.00,WSW,257,3.0,9.0,77,0.00,,,0.00,1.000000,,2013-01-22 03:52:00,
2013-01-21 23:22:00,19.0,13.0,-100.00,WSW,252,3.0,11.0,78,0.00,,,0.00,1.000000,,2013-01-22 04:22:00,
2013-01-21 23:33:00,19.0,13.0,-100.00,WSW,252,3.0,11.0,78,0.00,,,0.00,1.000000,,2013-01-22 04:33:00,
2013-01-21 23:42:00,19.0,13.0,-100.00,WSW,252,3.0,11.0,78,0.00,,,0.00,1.000000,,2013-01-22 04:42:00,
2013-01-21 23:52:00,19.0,13.0,-100.00,WSW,252,3.0,11.0,78,0.00,,,0.00,1.000000,,2013-01-22 04:52:00,